Time;durP1;ratioP1;P1;durP2;ratioP2;P2;SDS_P1;SDS_P2;PMS_P1;PMS_P2;Temp;Humidity;BMP_temperature;BMP_pressure;BME280_temperature;BME280_humidity;BME280_pressure;Samples;Min_cycle;Max_cycle;Signal;HPM_P1;HPM_P2
2022/12/01 00:05:26;;;;;;;;;;;;;;;;;;5038420;28;7122;-67
2022/12/01 00:07:52;;;;;;;;;;;;;;;;;;5037864;28;6939;-67
2022/12/01 00:13:04;;;;;;;;;;;;;;;;;;5037496;28;6797;-67
2022/12/01 00:18:20;;;;;;;;;;;;;;;;;;5038457;28;6936;-67
2022/12/01 00:20:49;;;;;;;;;;;;;;;;;;5037954;28;7130;-67
2022/12/01 00:26:19;;;;;;;;;;;;;;;;;;5037588;28;6933;-68
2022/12/01 00:28:49;;;;;;;;;;;;;;;;;;5037597;28;7065;-67
2022/12/01 00:31:15;;;;;;;;;;;;;;;;;;5037570;28;7311;-68
2022/12/01 00:33:40;;;;;;;;;;;;;;;;;;5038126;28;7404;-68
2022/12/01 00:36:15;;;;;;;;;;;;;;;;;;5037323;28;6872;-67
2022/12/01 00:38:41;;;;;;;;;;;;;;;;;;5037571;28;6949;-68
2022/12/01 00:41:07;;;;;;;;;;;;;;;;;;5037428;28;7128;-67
2022/12/01 00:43:38;;;;;;;;;;;;;;;;;;5037346;28;7139;-67
2022/12/01 00:46:10;;;;;;;;;;;;;;;;;;5040045;28;7127;-67
2022/12/01 00:48:36;;;;;;;;;;;;;;;;;;5057278;28;7023;-67
2022/12/01 00:51:02;;;;;;;;;;;;;;;;;;5056790;28;7063;-67
2022/12/01 00:56:32;;;;;;;;;;;;;;;;;;5056843;28;6928;-67
2022/12/01 00:58:58;;;;;;;;;;;;;;;;;;5057521;28;7428;-67
2022/12/01 01:01:41;;;;;;;;;;;;;;;;;;5057026;28;7093;-67
2022/12/01 01:04:06;;;;;;;;;;;;;;;;;;5056947;28;7195;-67
2022/12/01 01:06:53;;;;;;;;;;;;;;;;;;5056622;28;6985;-67
2022/12/01 01:12:22;;;;;;;;;;;;;;;;;;5056603;28;6689;-67
2022/12/01 01:15:01;;;;;;;;;;;;;;;;;;5056811;28;7183;-67
2022/12/01 01:17:26;;;;;;;;;;;;;;;;;;5056348;28;7950;-67
2022/12/01 01:19:52;;;;;;;;;;;;;;;;;;5038764;28;8441;-67
2022/12/01 01:22:18;;;;;;;;;;;;;;;;;;5056662;28;7137;-67
2022/12/01 01:24:44;;;;;;;;;;;;;;;;;;5056669;28;6938;-67
2022/12/01 01:27:10;;;;;;;;;;;;;;;;;;5056487;28;7157;-67
2022/12/01 01:29:36;;;;;;;;;;;;;;;;;;5129553;22;7150;-71
2022/12/01 01:37:01;;;;;;;;;;;;;;;;;;5141148;22;7211;-75
2022/12/01 01:39:26;;;;;;;;;;;;;;;;;;5124291;22;8451;-71
2022/12/01 01:41:52;;;;;;;;;;;;;;;;;;5152224;22;8518;-72
2022/12/01 01:44:36;;;;;;;;;;;;;;;;;;5223891;22;7451;-68
2022/12/01 01:49:26;;;;;;;;;;;;;;;;;;5115969;22;7286;-67
2022/12/01 01:54:25;;;;;;;;;;;;;;;;;;5163076;22;6976;-71
2022/12/01 01:56:53;;;;;;;;;;;;;;;;;;5163510;22;7176;-71
2022/12/01 02:01:53;;;;;;;;;;;;;;;;;;5149481;22;6921;-67
2022/12/01 02:04:19;;;;;;;;;;;;;;;;;;5184666;22;7058;-72
2022/12/01 02:06:45;;;;;;;;;;;;;;;;;;5134537;22;8990;-69
2022/12/01 02:09:11;;;;;;;;;;;;;;;;;;5141303;22;7420;-68
2022/12/01 02:19:19;;;;;;;;;;;;;;;;;;5179853;22;6776;31
2022/12/01 02:22:07;;;;;;;;;;;;;;;;;;5144664;22;7345;-75
2022/12/01 02:24:45;;;;;;;;;;;;;;;;;;5182062;22;7120;-76
2022/12/01 02:29:47;;;;;;;;;;;;;;;;;;5106389;22;1252851;-75
2022/12/01 02:35:01;;;;;;;;;;;;;;;;;;5097208;22;6939;-76
2022/12/01 02:37:40;;;;;;;;;;;;;;;;;;5054641;22;8275;-73
2022/12/01 02:40:06;;;;;;;;;;;;;;;;;;5143299;22;7253;-69
2022/12/01 02:42:50;;;;;;;;;;;;;;;;;;5207425;22;7899;-69
2022/12/01 02:50:16;;;;;;;;;;;;;;;;;;5099659;22;6926;-70
2022/12/01 02:52:42;;;;;;;;;;;;;;;;;;5140501;22;7135;-72
2022/12/01 02:55:08;;;;;;;;;;;;;;;;;;5144852;22;8524;-77
2022/12/01 03:00:02;;;;;;;;;;;;;;;;;;5139111;22;6915;-76
2022/12/01 03:02:42;;;;;;;;;;;;;;;;;;5108038;22;6829;-70
2022/12/01 03:10:25;;;;;;;;;;;;;;;;;;5075718;22;6967;-78
2022/12/01 03:13:00;;;;;;;;;;;;;;;;;;5139302;23;8542;-70
2022/12/01 03:15:40;;;;;;;;;;;;;;;;;;5146618;22;7392;-78
2022/12/01 03:18:17;;;;;;;;;;;;;;;;;;5183893;22;8579;-77
2022/12/01 03:25:47;;;;;;;;;;;;;;;;;;5149038;22;7349;-77
2022/12/01 03:28:16;;;;;;;;;;;;;;;;;;5121736;22;7154;-76
2022/12/01 03:33:18;;;;;;;;;;;;;;;;;;5236265;22;7704;-70
2022/12/01 03:35:53;;;;;;;;;;;;;;;;;;5190412;22;7367;-71
2022/12/01 03:40:50;;;;;;;;;;;;;;;;;;5142725;22;6927;-76
2022/12/01 03:43:24;;;;;;;;;;;;;;;;;;5182336;22;7169;-77
2022/12/01 03:48:31;;;;;;;;;;;;;;;;;;5150329;22;7163;-70
2022/12/01 03:51:21;;;;;;;;;;;;;;;;;;5148320;22;8566;-72
2022/12/01 03:53:54;;;;;;;;;;;;;;;;;;5131617;22;7499;-70
2022/12/01 03:58:54;;;;;;;;;;;;;;;;;;5142200;22;7255;-77
2022/12/01 04:01:21;;;;;;;;;;;;;;;;;;5034485;28;6964;-76
2022/12/01 04:03:46;;;;;;;;;;;;;;;;;;5034432;28;7269;-77
2022/12/01 04:06:16;;;;;;;;;;;;;;;;;;5034405;28;7308;-78
2022/12/01 04:08:41;;;;;;;;;;;;;;;;;;5034453;28;7095;-78
2022/12/01 04:14:04;;;;;;;;;;;;;;;;;;5034488;28;6972;-77
2022/12/01 04:16:40;;;;;;;;;;;;;;;;;;5033957;28;7203;-77
2022/12/01 04:19:06;;;;;;;;;;;;;;;;;;5034094;28;7200;-79
2022/12/01 04:21:31;;;;;;;;;;;;;;;;;;5033891;28;7037;-77
2022/12/01 04:23:59;;;;;;;;;;;;;;;;;;5034178;28;7484;-78
2022/12/01 04:26:26;;;;;;;;;;;;;;;;;;5036355;28;7140;-77
2022/12/01 04:28:52;;;;;;;;;;;;;;;;;;5037196;28;7389;-77
2022/12/01 04:31:17;;;;;;;;;;;;;;;;;;5036342;28;8512;-76
2022/12/01 04:37:15;;;;;;;;;;;;;;;;;;5037347;28;6971;-78
2022/12/01 04:39:41;;;;;;;;;;;;;;;;;;5037845;28;6929;-78
2022/12/01 04:42:09;;;;;;;;;;;;;;;;;;5037461;28;7266;-76
2022/12/01 04:44:35;;;;;;;;;;;;;;;;;;5034707;28;7176;-70
2022/12/01 04:50:05;;;;;;;;;;;;;;;;;;5017247;28;6897;-70
2022/12/01 04:52:31;;;;;;;;;;;;;;;;;;5017466;28;6973;-70
2022/12/01 04:58:36;;;;;;;;;;;;;;;;;;5017070;28;6949;-70
2022/12/01 05:01:04;;;;;;;;;;;;;;;;;;5017249;28;7188;-70
2022/12/01 05:03:35;;;;;;;;;;;;;;;;;;5017443;28;7087;-70
2022/12/01 05:06:02;;;;;;;;;;;;;;;;;;5017013;28;7272;-70
2022/12/01 05:08:31;;;;;;;;;;;;;;;;;;5017297;28;7190;-70
2022/12/01 05:10:57;;;;;;;;;;;;;;;;;;5017127;28;7083;-70
2022/12/01 05:22:31;;;;;;;;;;;;;;;;;;5016756;28;6933;-70
2022/12/01 05:24:57;;;;;;;;;;;;;;;;;;5122373;22;7170;-73
2022/12/01 05:27:22;;;;;;;;;;;;;;;;;;5110862;22;8778;-71
2022/12/01 05:29:48;;;;;;;;;;;;;;;;;;5107464;22;7142;-78
2022/12/01 05:32:14;;;;;;;;;;;;;;;;;;5197361;22;8435;-70
2022/12/01 05:34:40;;;;;;;;;;;;;;;;;;5151438;23;8650;-77
2022/12/01 05:37:05;;;;;;;;;;;;;;;;;;5146328;22;8752;-78
2022/12/01 05:39:31;;;;;;;;;;;;;;;;;;5157244;22;6964;-72
2022/12/01 05:41:57;;;;;;;;;;;;;;;;;;5068781;23;7212;-77
2022/12/01 05:44:22;;;;;;;;;;;;;;;;;;5015683;28;7221;-79
2022/12/01 05:47:22;;;;;;;;;;;;;;;;;;5016523;28;7208;-77
2022/12/01 05:49:48;;;;;;;;;;;;;;;;;;5016122;28;7196;-78
2022/12/01 05:52:13;;;;;;;;;;;;;;;;;;5016178;28;7333;-78
2022/12/01 05:54:39;;;;;;;;;;;;;;;;;;5016927;28;7275;-77
2022/12/01 05:57:05;;;;;;;;;;;;;;;;;;5016308;28;6952;-78
2022/12/01 05:59:30;;;;;;;;;;;;;;;;;;5016379;28;7080;-77
2022/12/01 06:01:56;;;;;;;;;;;;;;;;;;5015941;28;7162;-77
2022/12/01 06:04:23;;;;;;;;;;;;;;;;;;5014721;28;7042;-77
2022/12/01 06:09:51;;;;;;;;;;;;;;;;;;5016050;28;6682;-77
2022/12/01 06:18:46;;;;;;;;;;;;;;;;;;5016025;28;6910;-77
2022/12/01 06:21:11;;;;;;;;;;;;;;;;;;5015707;28;7303;-77
2022/12/01 06:26:29;;;;;;;;;;;;;;;;;;4997587;28;7044;-77
2022/12/01 06:28:55;;;;;;;;;;;;;;;;;;4996821;28;7104;-77
2022/12/01 06:31:20;;;;;;;;;;;;;;;;;;4995624;28;6986;-77
2022/12/01 06:34:14;;;;;;;;;;;;;;;;;;4995714;28;7169;-77
2022/12/01 06:36:39;;;;;;;;;;;;;;;;;;4996534;28;7461;-77
2022/12/01 06:39:08;;;;;;;;;;;;;;;;;;4994536;28;8432;-76
2022/12/01 06:44:12;;;;;;;;;;;;;;;;;;5127472;22;6934;-70
2022/12/01 06:46:37;;;;;;;;;;;;;;;;;;5191467;22;7376;-70
2022/12/01 06:49:03;;;;;;;;;;;;;;;;;;5089714;22;7212;-77
2022/12/01 06:51:32;;;;;;;;;;;;;;;;;;5163082;22;7449;-74
2022/12/01 06:53:58;;;;;;;;;;;;;;;;;;5092373;22;7418;-69
2022/12/01 06:56:24;;;;;;;;;;;;;;;;;;5129389;22;7000;-76
2022/12/01 06:58:50;;;;;;;;;;;;;;;;;;5190563;22;6843;-73
2022/12/01 07:03:49;;;;;;;;;;;;;;;;;;5083181;22;6952;-69
2022/12/01 07:06:15;;;;;;;;;;;;;;;;;;5044623;28;7100;-68
2022/12/01 07:08:41;;;;;;;;;;;;;;;;;;5054706;28;6999;-69
2022/12/01 07:17:45;;;;;;;;;;;;;;;;;;5054237;28;7018;-68
2022/12/01 07:20:11;;;;;;;;;;;;;;;;;;5054499;28;7226;-69
2022/12/01 07:22:42;;;;;;;;;;;;;;;;;;5052301;28;7108;-69
2022/12/01 07:25:08;;;;;;;;;;;;;;;;;;5034439;28;6973;-69
2022/12/01 07:33:40;;;;;;;;;;;;;;;;;;5014573;28;6900;-69
2022/12/01 07:36:07;;;;;;;;;;;;;;;;;;5014779;28;6945;-69
2022/12/01 07:38:55;;;;;;;;;;;;;;;;;;5014818;28;7425;-69
2022/12/01 07:41:20;;;;;;;;;;;;;;;;;;5015007;28;7363;-69
2022/12/01 07:50:13;;;;;;;;;;;;;;;;;;5020710;28;7185;-68
2022/12/01 07:52:39;;;;;;;;;;;;;;;;;;5035212;28;7044;-68
2022/12/01 07:58:08;;;;;;;;;;;;;;;;;;5034146;28;6675;-69
2022/12/01 08:00:41;;;;;;;;;;;;;;;;;;5035023;28;7026;-69
2022/12/01 08:06:12;;;;;;;;;;;;;;;;;;5037735;28;6690;-69
2022/12/01 08:08:38;;;;;;;;;;;;;;;;;;5037804;28;6830;-69
2022/12/01 08:17:24;;;;;;;;;;;;;;;;;;5037650;28;6926;-69
2022/12/01 08:19:49;;;;;;;;;;;;;;;;;;5037716;28;7021;-69
2022/12/01 08:22:15;;;;;;;;;;;;;;;;;;5037523;28;8242;-68
2022/12/01 08:25:03;;;;;;;;;;;;;;;;;;5037750;28;6982;-68
2022/12/01 08:27:28;;;;;;;;;;;;;;;;;;5037405;28;8760;-69
2022/12/01 08:30:03;;;;;;;;;;;;;;;;;;5037189;28;7965;-68
2022/12/01 08:32:28;;;;;;;;;;;;;;;;;;5037580;28;6932;-68
2022/12/01 08:35:03;;;;;;;;;;;;;;;;;;5038382;28;8339;-68
2022/12/01 08:37:29;;;;;;;;;;;;;;;;;;5037306;28;7164;-68
2022/12/01 08:39:55;;;;;;;;;;;;;;;;;;5037367;28;7105;-68
2022/12/01 08:42:21;;;;;;;;;;;;;;;;;;5037469;28;7196;-75
2022/12/01 08:44:46;;;;;;;;;;;;;;;;;;5036149;28;6932;-68
2022/12/01 08:47:12;;;;;;;;;;;;;;;;;;5037433;28;7395;-68
2022/12/01 08:49:37;;;;;;;;;;;;;;;;;;5036794;28;7246;-69
2022/12/01 08:52:06;;;;;;;;;;;;;;;;;;5036555;28;7027;-68
2022/12/01 08:54:39;;;;;;;;;;;;;;;;;;5036800;28;7251;-68
2022/12/01 08:57:05;;;;;;;;;;;;;;;;;;5036976;28;6989;-68
2022/12/01 09:00:00;;;;;;;;;;;;;;;;;;5036906;28;6946;-68
2022/12/01 09:02:52;;;;;;;;;;;;;;;;;;5036920;28;7102;-68
2022/12/01 09:05:17;;;;;;;;;;;;;;;;;;5037082;28;7251;-69
2022/12/01 09:10:52;;;;;;;;;;;;;;;;;;5036636;28;6705;-68
2022/12/01 09:13:18;;;;;;;;;;;;;;;;;;5036521;28;6925;-69
2022/12/01 09:15:53;;;;;;;;;;;;;;;;;;5036785;28;6846;-68
2022/12/01 09:18:19;;;;;;;;;;;;;;;;;;5036550;28;6998;-76
2022/12/01 09:21:09;;;;;;;;;;;;;;;;;;5036788;28;7158;-76
2022/12/01 09:23:35;;;;;;;;;;;;;;;;;;5036750;28;6912;-77
2022/12/01 09:29:06;;;;;;;;;;;;;;;;;;5036295;28;6678;-76
2022/12/01 09:31:32;;;;;;;;;;;;;;;;;;5036460;28;7158;-77
2022/12/01 09:37:14;;;;;;;;;;;;;;;;;;5036291;28;7410;-76
2022/12/01 09:39:39;;;;;;;;;;;;;;;;;;5036418;28;7460;-76
2022/12/01 09:42:26;;;;;;;;;;;;;;;;;;5036362;28;7037;-76
2022/12/01 09:44:56;;;;;;;;;;;;;;;;;;5036473;28;7215;-77
2022/12/01 09:47:21;;;;;;;;;;;;;;;;;;5036233;28;7640;-69
2022/12/01 09:50:20;;;;;;;;;;;;;;;;;;5036217;28;7159;-69
2022/12/01 09:55:49;;;;;;;;;;;;;;;;;;4975456;28;6690;-69
2022/12/01 09:58:22;;;;;;;;;;;;;;;;;;4975204;28;7155;-76
2022/12/01 10:00:49;;;;;;;;;;;;;;;;;;4975174;28;7045;-76
2022/12/01 10:03:34;;;;;;;;;;;;;;;;;;4974773;28;6934;-77
2022/12/01 10:06:09;;;;;;;;;;;;;;;;;;4975193;28;7132;-77
2022/12/01 10:08:38;;;;;;;;;;;;;;;;;;4975356;28;7061;-77
2022/12/01 10:14:21;;;;;;;;;;;;;;;;;;4975293;28;6802;-69
2022/12/01 10:16:52;;;;;;;;;;;;;;;;;;4974849;28;7021;-76
2022/12/01 10:22:50;;;;;;;;;;;;;;;;;;4975303;28;7003;-69
2022/12/01 10:31:53;;;;;;;;;;;;;;;;;;5015536;28;6742;-69
2022/12/01 10:34:24;;;;;;;;;;;;;;;;;;5016774;28;7173;-69
2022/12/01 10:36:50;;;;;;;;;;;;;;;;;;5015456;28;7078;-70
2022/12/01 10:42:17;;;;;;;;;;;;;;;;;;5015655;28;6829;-70
2022/12/01 10:44:47;;;;;;;;;;;;;;;;;;5015354;28;7064;-69
2022/12/01 10:47:22;;;;;;;;;;;;;;;;;;5015263;28;7193;-69
2022/12/01 10:52:51;;;;;;;;;;;;;;;;;;5015113;28;6701;-70
2022/12/01 10:55:37;;;;;;;;;;;;;;;;;;5015333;28;7382;-70
2022/12/01 10:58:17;;;;;;;;;;;;;;;;;;5015253;28;7007;-69
2022/12/01 11:03:37;;;;;;;;;;;;;;;;;;5018841;28;6885;-70
2022/12/01 11:06:09;;;;;;;;;;;;;;;;;;5034926;28;7133;-78
2022/12/01 11:08:40;;;;;;;;;;;;;;;;;;5034941;28;7130;-70
2022/12/01 11:14:32;;;;;;;;;;;;;;;;;;5034738;28;6935;-77
2022/12/01 11:17:14;;;;;;;;;;;;;;;;;;5034442;28;6987;-70
2022/12/01 11:19:39;;;;;;;;;;;;;;;;;;5017185;28;7535;-70
2022/12/01 11:22:30;;;;;;;;;;;;;;;;;;5034670;28;7427;-69
2022/12/01 11:25:28;;;;;;;;;;;;;;;;;;5034722;28;7145;-69
2022/12/01 11:28:00;;;;;;;;;;;;;;;;;;5017011;28;7192;-78
2022/12/01 11:30:38;;;;;;;;;;;;;;;;;;5034003;28;7230;-78
2022/12/01 11:33:03;;;;;;;;;;;;;;;;;;5034122;28;7200;-77
2022/12/01 11:35:32;;;;;;;;;;;;;;;;;;5036384;28;7024;-70
2022/12/01 11:38:02;;;;;;;;;;;;;;;;;;5038704;28;7183;-77
2022/12/01 11:40:31;;;;;;;;;;;;;;;;;;5038606;28;7314;-71
2022/12/01 11:46:06;;;;;;;;;;;;;;;;;;5038474;28;6971;-78
2022/12/01 11:51:56;;;;;;;;;;;;;;;;;;5038315;28;6737;-71
2022/12/01 11:57:28;;;;;;;;;;;;;;;;;;5038453;28;7156;-77
2022/12/01 12:05:59;;;;;;;;;;;;;;;;;;5154700;22;7251;-73
2022/12/01 12:11:25;;;;;;;;;;;;;;;;;;5259080;22;7244;-77
2022/12/01 12:21:58;;;;;;;;;;;;;;;;;;5164703;22;7759;-71
2022/12/01 12:24:26;;;;;;;;;;;;;;;;;;5114225;22;8439;-71
2022/12/01 12:26:52;;;;;;;;;;;;;;;;;;5157494;22;8918;-76
2022/12/01 12:34:44;;;;;;;;;;;;;;;;;;5164718;22;7022;-77
2022/12/01 12:37:16;;;;;;;;;;;;;;;;;;5075738;23;8639;-70
2022/12/01 12:42:27;;;;;;;;;;;;;;;;;;5068366;22;6927;-70
2022/12/01 12:50:10;;;;;;;;;;;;;;;;;;5034756;28;7684;-70
2022/12/01 12:52:40;;;;;;;;;;;;;;;;;;5037342;28;7385;-69
2022/12/01 12:55:20;;;;;;;;;;;;;;;;;;5036929;28;6823;-70
2022/12/01 12:58:32;;;;;;;;;;;;;;;;;;5037266;28;7168;-70
2022/12/01 13:01:02;;;;;;;;;;;;;;;;;;4995635;28;7016;-70
2022/12/01 13:04:00;;;;;;;;;;;;;;;;;;4995872;28;6821;-77
2022/12/01 13:06:34;;;;;;;;;;;;;;;;;;4995768;28;6945;-77
2022/12/01 13:09:06;;;;;;;;;;;;;;;;;;4995623;28;7050;-77
2022/12/01 13:12:00;;;;;;;;;;;;;;;;;;4992695;28;7102;-70
2022/12/01 13:14:30;;;;;;;;;;;;;;;;;;4995128;28;7007;-70
2022/12/01 13:19:50;;;;;;;;;;;;;;;;;;4995262;28;7041;-77
2022/12/01 13:22:17;;;;;;;;;;;;;;;;;;4995348;28;7398;-71
2022/12/01 13:24:44;;;;;;;;;;;;;;;;;;4995487;28;6977;-70
2022/12/01 13:27:09;;;;;;;;;;;;;;;;;;4995364;28;7236;-77
2022/12/01 13:32:41;;;;;;;;;;;;;;;;;;5033076;28;7145;-69
2022/12/01 13:35:24;;;;;;;;;;;;;;;;;;5036563;28;7060;-70
2022/12/01 13:41:14;;;;;;;;;;;;;;;;;;5036461;28;6681;-78
2022/12/01 13:46:42;;;;;;;;;;;;;;;;;;5036177;28;6672;-77
2022/12/01 13:52:20;;;;;;;;;;;;;;;;;;5036077;28;6702;-76
2022/12/01 13:55:18;;;;;;;;;;;;;;;;;;5036174;28;7115;-70
2022/12/01 13:58:01;;;;;;;;;;;;;;;;;;5035964;28;7431;-70
2022/12/01 14:00:31;;;;;;;;;;;;;;;;;;5035800;28;7040;-77
2022/12/01 14:03:12;;;;;;;;;;;;;;;;;;5035958;28;7148;-77
2022/12/01 14:06:04;;;;;;;;;;;;;;;;;;5035954;28;7434;-70
2022/12/01 14:08:33;;;;;;;;;;;;;;;;;;5036099;28;7031;-77
2022/12/01 14:11:17;;;;;;;;;;;;;;;;;;5035627;28;7135;-77
2022/12/01 14:16:49;;;;;;;;;;;;;;;;;;5035419;28;6983;-69
2022/12/01 14:19:35;;;;;;;;;;;;;;;;;;5034279;28;8857;-78
2022/12/01 14:22:05;;;;;;;;;;;;;;;;;;5035719;28;7289;-77
2022/12/01 14:24:51;;;;;;;;;;;;;;;;;;5035499;28;7028;-78
2022/12/01 14:27:37;;;;;;;;;;;;;;;;;;5035485;28;8318;-69
2022/12/01 14:33:33;;;;;;;;;;;;;;;;;;5035855;28;7117;-70
2022/12/01 14:35:59;;;;;;;;;;;;;;;;;;5032420;28;7106;-70
2022/12/01 14:38:27;;;;;;;;;;;;;;;;;;5035124;28;7171;-70
2022/12/01 14:44:03;;;;;;;;;;;;;;;;;;5035203;28;6968;-76
2022/12/01 14:46:56;;;;;;;;;;;;;;;;;;5035306;28;7147;-70
2022/12/01 14:52:27;;;;;;;;;;;;;;;;;;5034831;28;6924;-69
2022/12/01 14:55:03;;;;;;;;;;;;;;;;;;5035301;28;7075;-69
2022/12/01 14:58:04;;;;;;;;;;;;;;;;;;5034923;28;6874;-70
2022/12/01 15:00:34;;;;;;;;;;;;;;;;;;5034692;28;7277;-69
2022/12/01 15:09:05;;;;;;;;;;;;;;;;;;5034734;28;6701;-70
2022/12/01 15:12:19;;;;;;;;;;;;;;;;;;5035511;28;7392;-69
2022/12/01 15:21:05;;;;;;;;;;;;;;;;;;5034585;28;7028;-70
2022/12/01 15:23:31;;;;;;;;;;;;;;;;;;5034524;28;8194;-77
2022/12/01 15:26:18;;;;;;;;;;;;;;;;;;5034530;28;7074;-77
2022/12/01 15:28:44;;;;;;;;;;;;;;;;;;5034477;28;7195;-78
2022/12/01 15:31:32;;;;;;;;;;;;;;;;;;5034339;28;6952;-69
2022/12/01 15:37:07;;;;;;;;;;;;;;;;;;5034432;28;6677;-70
2022/12/01 15:40:08;;;;;;;;;;;;;;;;;;5034681;28;6978;-70
2022/12/01 15:42:37;;;;;;;;;;;;;;;;;;5034753;28;7214;-70
2022/12/01 15:45:24;;;;;;;;;;;;;;;;;;5034586;28;7404;-70
2022/12/01 15:47:51;;;;;;;;;;;;;;;;;;5034426;28;7345;-70
2022/12/01 15:50:25;;;;;;;;;;;;;;;;;;5034513;28;7072;-70
2022/12/01 15:52:51;;;;;;;;;;;;;;;;;;5034358;28;7053;-69
2022/12/01 15:58:41;;;;;;;;;;;;;;;;;;5034322;28;6715;-77
2022/12/01 16:01:17;;;;;;;;;;;;;;;;;;5035197;28;7376;-77
2022/12/01 16:03:52;;;;;;;;;;;;;;;;;;5033350;28;8456;-77
2022/12/01 16:06:48;;;;;;;;;;;;;;;;;;5034399;28;7112;-77
2022/12/01 16:12:17;;;;;;;;;;;;;;;;;;5033918;28;6693;-77
2022/12/01 16:17:52;;;;;;;;;;;;;;;;;;5034347;28;6690;-77
2022/12/01 16:20:23;;;;;;;;;;;;;;;;;;5033837;28;6930;-77
2022/12/01 16:28:52;;;;;;;;;;;;;;;;;;5037777;28;7013;-70
2022/12/01 16:31:18;;;;;;;;;;;;;;;;;;5037753;28;7184;-77
2022/12/01 16:33:45;;;;;;;;;;;;;;;;;;5037531;28;6975;-69
2022/12/01 16:36:13;;;;;;;;;;;;;;;;;;5037697;28;6838;-70
2022/12/01 16:38:41;;;;;;;;;;;;;;;;;;5037896;28;7474;-69
2022/12/01 16:41:15;;;;;;;;;;;;;;;;;;5037732;28;7419;-77
2022/12/01 16:43:41;;;;;;;;;;;;;;;;;;5037532;28;6841;-77
2022/12/01 16:46:12;;;;;;;;;;;;;;;;;;5037540;28;7145;-77
2022/12/01 16:48:38;;;;;;;;;;;;;;;;;;5030723;28;7013;-77
2022/12/01 16:51:06;;;;;;;;;;;;;;;;;;5037437;28;7416;-70
2022/12/01 16:53:32;;;;;;;;;;;;;;;;;;5037165;28;7049;-77
2022/12/01 16:56:24;;;;;;;;;;;;;;;;;;5037312;28;8266;-70
2022/12/01 16:58:50;;;;;;;;;;;;;;;;;;5037152;28;7192;-69
2022/12/01 17:01:16;;;;;;;;;;;;;;;;;;5036885;28;7952;-69
2022/12/01 17:03:42;;;;;;;;;;;;;;;;;;5037271;28;7142;-70
2022/12/01 17:06:15;;;;;;;;;;;;;;;;;;5037869;28;7044;-77
2022/12/01 17:08:40;;;;;;;;;;;;;;;;;;5037231;28;7780;-70
2022/12/01 17:11:06;;;;;;;;;;;;;;;;;;5036981;28;7209;-76
2022/12/01 17:13:47;;;;;;;;;;;;;;;;;;5036986;28;7749;-77
2022/12/01 17:16:13;;;;;;;;;;;;;;;;;;5036845;28;7170;-69
2022/12/01 17:18:39;;;;;;;;;;;;;;;;;;5037553;28;7051;-77
2022/12/01 17:21:14;;;;;;;;;;;;;;;;;;5036725;28;7272;-69
2022/12/01 17:23:39;;;;;;;;;;;;;;;;;;5034803;28;8040;-68
2022/12/01 17:26:32;;;;;;;;;;;;;;;;;;5037234;28;7215;-69
2022/12/01 17:28:57;;;;;;;;;;;;;;;;;;5036829;28;6950;-70
2022/12/01 17:31:40;;;;;;;;;;;;;;;;;;5036461;28;7208;-69
2022/12/01 17:34:05;;;;;;;;;;;;;;;;;;5036361;28;7155;-77
2022/12/01 17:36:31;;;;;;;;;;;;;;;;;;5051927;28;8387;-77
2022/12/01 17:39:18;;;;;;;;;;;;;;;;;;5036478;28;6925;-77
2022/12/01 17:41:43;;;;;;;;;;;;;;;;;;5036467;28;7444;-77
2022/12/01 17:44:19;;;;;;;;;;;;;;;;;;5036412;28;7424;-77
2022/12/01 17:46:44;;;;;;;;;;;;;;;;;;5036504;28;6929;-77
2022/12/01 17:52:34;;;;;;;;;;;;;;;;;;5036279;28;6722;-77
2022/12/01 17:55:00;;;;;;;;;;;;;;;;;;5036171;28;7226;-77
2022/12/01 17:57:26;;;;;;;;;;;;;;;;;;5036154;28;6821;-77
2022/12/01 18:09:04;;;;;;;;;;;;;;;;;;5035649;28;6929;-77
2022/12/01 18:14:33;;;;;;;;;;;;;;;;;;5035578;28;6685;-77
2022/12/01 18:17:00;;;;;;;;;;;;;;;;;;5035560;28;7160;-77
2022/12/01 18:19:25;;;;;;;;;;;;;;;;;;5035690;28;7167;-77
2022/12/01 18:21:51;;;;;;;;;;;;;;;;;;5035677;28;7096;-77
2022/12/01 18:24:17;;;;;;;;;;;;;;;;;;5035681;28;7317;-77
2022/12/01 18:26:44;;;;;;;;;;;;;;;;;;5036003;28;7111;-77
2022/12/01 18:29:22;;;;;;;;;;;;;;;;;;5035561;28;6810;-77
2022/12/01 18:31:48;;;;;;;;;;;;;;;;;;5036120;28;7171;-77
2022/12/01 18:34:13;;;;;;;;;;;;;;;;;;5034145;28;7248;-77
2022/12/01 18:36:40;;;;;;;;;;;;;;;;;;5034106;28;8674;-77
2022/12/01 18:39:07;;;;;;;;;;;;;;;;;;5035314;28;6926;-77
2022/12/01 18:41:43;;;;;;;;;;;;;;;;;;5035037;28;6830;-69
2022/12/01 18:44:29;;;;;;;;;;;;;;;;;;5034803;28;7100;-69
2022/12/01 18:46:55;;;;;;;;;;;;;;;;;;5035283;28;7362;-69
2022/12/01 18:49:21;;;;;;;;;;;;;;;;;;5030225;28;7449;-69
2022/12/01 18:51:47;;;;;;;;;;;;;;;;;;5035191;28;7101;-69
2022/12/01 18:54:14;;;;;;;;;;;;;;;;;;5035115;28;7095;-68
2022/12/01 18:57:00;;;;;;;;;;;;;;;;;;5035099;28;7226;-69
2022/12/01 18:59:38;;;;;;;;;;;;;;;;;;5035032;28;7170;-68
2022/12/01 19:02:04;;;;;;;;;;;;;;;;;;5035046;28;7221;-69
2022/12/01 19:04:48;;;;;;;;;;;;;;;;;;5036016;28;7294;-68
2022/12/01 19:07:14;;;;;;;;;;;;;;;;;;5034892;28;7038;-69
2022/12/01 19:09:58;;;;;;;;;;;;;;;;;;5034901;28;7139;-68
2022/12/01 19:15:35;;;;;;;;;;;;;;;;;;5034568;28;6681;-68
2022/12/01 19:18:00;;;;;;;;;;;;;;;;;;5034504;28;6904;-69
2022/12/01 19:20:26;;;;;;;;;;;;;;;;;;5034800;28;7099;-68
2022/12/01 19:22:52;;;;;;;;;;;;;;;;;;5034835;28;7207;-68
2022/12/01 19:25:17;;;;;;;;;;;;;;;;;;5028896;28;6992;-69
2022/12/01 19:27:43;;;;;;;;;;;;;;;;;;5024069;28;7032;-69
2022/12/01 19:30:09;;;;;;;;;;;;;;;;;;5022604;28;7143;-68
2022/12/01 19:32:34;;;;;;;;;;;;;;;;;;5023006;28;6946;-69
2022/12/01 19:35:06;;;;;;;;;;;;;;;;;;5021909;28;7069;-69
2022/12/01 19:37:31;;;;;;;;;;;;;;;;;;5025618;28;6865;-68
2022/12/01 19:43:00;;;;;;;;;;;;;;;;;;5014592;28;6917;-69
2022/12/01 19:45:28;;;;;;;;;;;;;;;;;;5014529;28;7015;-69
2022/12/01 19:47:58;;;;;;;;;;;;;;;;;;5015675;28;7033;-68
2022/12/01 19:50:35;;;;;;;;;;;;;;;;;;5014700;28;7182;-69
2022/12/01 19:53:03;;;;;;;;;;;;;;;;;;5014345;28;6962;-68
2022/12/01 19:55:29;;;;;;;;;;;;;;;;;;5014448;28;7916;-68
2022/12/01 19:57:55;;;;;;;;;;;;;;;;;;5017803;28;7311;-69
2022/12/01 20:00:21;;;;;;;;;;;;;;;;;;5018236;28;8032;-76
2022/12/01 20:03:02;;;;;;;;;;;;;;;;;;5018571;28;6993;-77
2022/12/01 20:05:28;;;;;;;;;;;;;;;;;;5018784;28;7424;-77
2022/12/01 20:07:55;;;;;;;;;;;;;;;;;;5018474;28;7189;-77
2022/12/01 20:10:20;;;;;;;;;;;;;;;;;;5019445;28;7272;-77
2022/12/01 20:12:46;;;;;;;;;;;;;;;;;;5018434;28;7123;-77
2022/12/01 20:15:13;;;;;;;;;;;;;;;;;;5018392;28;7214;-76
2022/12/01 20:17:44;;;;;;;;;;;;;;;;;;5018364;28;7181;-77
2022/12/01 20:20:10;;;;;;;;;;;;;;;;;;5018244;28;6917;-77
2022/12/01 20:25:39;;;;;;;;;;;;;;;;;;5017913;28;6678;-77
2022/12/01 20:28:12;;;;;;;;;;;;;;;;;;5018166;28;7021;-77
2022/12/01 20:30:39;;;;;;;;;;;;;;;;;;5017932;28;7131;-77
2022/12/01 20:33:29;;;;;;;;;;;;;;;;;;5017976;28;7106;-77
2022/12/01 20:35:55;;;;;;;;;;;;;;;;;;5017845;28;7145;-77
2022/12/01 20:38:33;;;;;;;;;;;;;;;;;;5017797;28;7032;-76
2022/12/01 20:41:32;;;;;;;;;;;;;;;;;;5017797;28;6952;-77
2022/12/01 20:43:58;;;;;;;;;;;;;;;;;;5017755;28;7355;-77
2022/12/01 20:46:23;;;;;;;;;;;;;;;;;;5017800;28;7116;-77
2022/12/01 20:51:51;;;;;;;;;;;;;;;;;;5017420;28;6924;-76
2022/12/01 20:54:33;;;;;;;;;;;;;;;;;;5017553;28;7298;-77
2022/12/01 20:56:59;;;;;;;;;;;;;;;;;;5015148;28;7988;-76
2022/12/01 21:02:57;;;;;;;;;;;;;;;;;;5017221;28;6746;-69
2022/12/01 21:05:23;;;;;;;;;;;;;;;;;;5024168;28;8942;-69
2022/12/01 21:10:46;;;;;;;;;;;;;;;;;;5037462;28;7169;-69
2022/12/01 21:16:23;;;;;;;;;;;;;;;;;;5036773;28;6829;-69
2022/12/01 21:19:05;;;;;;;;;;;;;;;;;;5036686;28;7969;-69
2022/12/01 21:21:34;;;;;;;;;;;;;;;;;;5036973;28;7448;-69
2022/12/01 21:24:06;;;;;;;;;;;;;;;;;;5037642;28;7200;-69
2022/12/01 21:26:32;;;;;;;;;;;;;;;;;;5036739;28;7207;-69
2022/12/01 21:28:59;;;;;;;;;;;;;;;;;;5036689;28;7234;-69
2022/12/01 21:31:36;;;;;;;;;;;;;;;;;;5036668;28;7037;-69
2022/12/01 21:34:10;;;;;;;;;;;;;;;;;;5036677;28;7379;-69
2022/12/01 21:36:36;;;;;;;;;;;;;;;;;;5036508;28;7159;-69
2022/12/01 21:39:23;;;;;;;;;;;;;;;;;;5037355;28;6993;-69
2022/12/01 21:41:50;;;;;;;;;;;;;;;;;;5036539;28;7367;-69
2022/12/01 21:44:18;;;;;;;;;;;;;;;;;;5036539;28;7283;-70
2022/12/01 21:46:45;;;;;;;;;;;;;;;;;;5036399;28;7087;-69
2022/12/01 21:49:14;;;;;;;;;;;;;;;;;;5036241;28;7162;-70
2022/12/01 21:51:40;;;;;;;;;;;;;;;;;;5036215;28;7063;-70
2022/12/01 21:54:11;;;;;;;;;;;;;;;;;;5035758;28;7212;-69
2022/12/01 21:56:44;;;;;;;;;;;;;;;;;;5036296;28;7367;-70
2022/12/01 21:59:19;;;;;;;;;;;;;;;;;;5035719;28;7782;-70
2022/12/01 22:01:51;;;;;;;;;;;;;;;;;;5036175;28;7219;-69
2022/12/01 22:04:27;;;;;;;;;;;;;;;;;;5035881;28;7132;-69
2022/12/01 22:07:14;;;;;;;;;;;;;;;;;;5036644;28;7035;-70
2022/12/01 22:09:39;;;;;;;;;;;;;;;;;;5035865;28;7170;-69
2022/12/01 22:14:59;;;;;;;;;;;;;;;;;;5036043;28;6957;-69
2022/12/01 22:17:27;;;;;;;;;;;;;;;;;;5035825;28;7011;-69
2022/12/01 22:19:55;;;;;;;;;;;;;;;;;;5029890;28;7045;-69
2022/12/01 22:22:31;;;;;;;;;;;;;;;;;;5015888;28;7150;-69
2022/12/01 22:25:15;;;;;;;;;;;;;;;;;;5023831;28;7170;-69
2022/12/01 22:28:07;;;;;;;;;;;;;;;;;;5035621;28;7110;-69
2022/12/01 22:30:33;;;;;;;;;;;;;;;;;;5035510;28;7044;-69
2022/12/01 22:33:04;;;;;;;;;;;;;;;;;;5036280;28;7251;-69
2022/12/01 22:35:41;;;;;;;;;;;;;;;;;;5035506;28;7150;-70
2022/12/01 22:38:09;;;;;;;;;;;;;;;;;;5035480;28;7162;-70
2022/12/01 22:40:46;;;;;;;;;;;;;;;;;;5035274;28;7448;-69
2022/12/01 22:49:05;;;;;;;;;;;;;;;;;;5035239;28;6939;-69
2022/12/01 22:51:42;;;;;;;;;;;;;;;;;;5029771;28;7380;-69
2022/12/01 22:54:08;;;;;;;;;;;;;;;;;;5035100;28;7204;-70
2022/12/01 22:56:33;;;;;;;;;;;;;;;;;;5035150;28;7213;-69